FW1186 Weather Reports


Display with metric or nautical units.
time (UTC)temp
F
wind
direction
speed
MPH
gust
MPH
rain 1hr
in
rain 24hr
in
rain mn
in
humidity
%
barometer
mb
20260902144551 53 359 0.0 1.0 0.00 0.00 0.00 62 1027.7
20260902143049 51 169 0.0 2.0 0.00 0.00 0.00 59 1027.8
20260902141552 53 339 1.0 3.0 0.00 0.00 0.00 57 1027.4
20260902140046 54 296 0.0 3.0 0.00 0.00 0.00 58 1027.3
20260902134544 53 1 0.0 4.0 0.00 0.00 0.00 60 1027.2
20260902133052 54 3 0.0 2.0 0.00 0.00 0.00 58 1027.1
20260902131538 53 11 1.0 4.0 0.00 0.00 0.00 58 1026.9
20260902130035 55 295 0.0 0.0 0.00 0.00 0.00 53 1026.7
20260902124536 58 189 0.0 3.0 0.00 0.00 0.00 49 1026.5
20260902123032 59 125 1.0 5.0 0.00 0.00 0.00 51 1026.5
20260902121532 60 128 4.0 7.0 0.00 0.00 0.00 52 1026.4
20260902120037 59 134 2.0 6.0 0.00 0.00 0.00 52 1026.4
20260902114538 58 131 1.0 5.0 0.00 0.00 0.00 52 1026.6
20260902113027 57 168 0.0 4.0 0.00 0.00 0.00 48 1026.5
20260902111538 54 341 1.0 3.0 0.00 0.00 0.00 48 1026.5
20260902110048 52 39 0.0 1.0 0.00 0.00 0.00 51 1026.3
20260902104526 54 254 0.0 2.0 0.00 0.00 0.00 48 1026.2
20260902103017 53 359 0.0 1.0 0.00 0.00 0.00 50 1026.2
20260902101515 53 149 0.0 1.0 0.00 0.00 0.00 49 1026.2
20260902100011 54 297 0.0 1.0 0.00 0.00 0.00 48 1026.2
20260902094508 55 304 0.0 0.0 0.00 0.00 0.00 46 1026.1
20260902093004 56 311 0.0 0.0 0.00 0.00 0.00 44 1026.2
20260902091503 56 317 0.0 0.0 0.00 0.00 0.00 45 1026.3
20260902090059 58 304 1.0 2.0 0.00 0.00 0.00 42 1026.3
20260902084604 58 242 0.0 0.0 0.00 0.00 0.00 42 1026.2
20260902083103 60 336 0.0 2.0 0.00 0.00 0.00 40 1026.1
20260902081553 59 348 1.0 3.0 0.00 0.00 0.00 42 1026.1
20260902080107 59 350 0.0 2.0 0.00 0.00 0.00 43 1025.9
20260902074548 59 330 0.0 0.0 0.00 0.00 0.00 42 1025.9
20260902073045 59 349 1.0 2.0 0.00 0.00 0.00 42 1025.9
20260902071540 62 299 0.0 0.0 0.00 0.00 0.00 39 1025.7
20260902070036 64 295 0.0 5.0 0.00 0.00 0.00 39 1025.5
20260902064535 63 311 0.0 2.0 0.00 0.00 0.00 37 1025.5
20260902063035 66 212 0.0 3.0 0.00 0.00 0.00 34 1025.3
20260902061558 68 205 1.0 3.0 0.00 0.00 0.00 33 1025.2
20260902060036 68 162 2.0 6.0 0.00 0.00 0.00 34 1025.1
20260902054543 68 140 0.0 0.0 0.00 0.00 0.00 32 1025.0
20260902053031 69 288 0.0 0.0 0.00 0.00 0.00 31 1025.0
20260902051531 70 127 1.0 2.0 0.00 0.00 0.00 30 1024.9
20260902050030 70 58 0.0 2.0 0.00 0.00 0.00 28 1024.9
20260902044530 71 109 1.0 9.0 0.00 0.00 0.00 26 1024.8
20260902043029 71 148 3.0 6.0 0.00 0.00 0.00 26 1024.6
20260902041530 72 165 3.0 9.0 0.00 0.00 0.00 26 1024.3
20260902040029 72 161 5.0 13.0 0.00 0.00 0.00 27 1024.2
20260902034528 73 134 5.0 9.0 0.00 0.00 0.00 27 1024.0
20260902033027 73 127 5.0 9.0 0.00 0.00 0.00 25 1023.6
20260902031526 74 205 2.0 11.0 0.00 0.00 0.00 24 1023.3
20260902030025 75 152 7.0 12.0 0.00 0.00 0.00 28 1023.1
20260902024524 75 150 5.0 10.0 0.00 0.00 0.00 24 1023.0
20260902023024 76 160 5.0 11.0 0.00 0.00 0.00 22 1022.8
20260902021524 77 174 3.0 11.0 0.00 0.00 0.00 23 1022.7
20260902020023 78 155 5.0 13.0 0.00 0.00 0.00 22 1022.7
20260902014530 80 141 4.0 8.0 0.00 0.00 0.00 15 1022.7
20260902013022 81 188 4.0 7.0 0.00 0.00 0.00 13 1022.6
20260902011521 82 199 3.0 9.0 0.00 0.00 0.00 11 1022.6
20260902010034 83 219 2.0 13.0 0.00 0.00 0.00 12 1022.5
20260902004525 83 194 6.0 10.0 0.00 0.00 0.00 10 1022.5
20260902003020 83 180 5.0 11.0 0.00 0.00 0.00 9 1022.6
20260902001519 84 214 4.0 9.0 0.00 0.00 0.00 10 1022.7
20260902000024 84 278 5.0 10.0 0.00 0.00 0.00 8 1022.9
20260901234517 84 243 3.0 10.0 0.00 0.00 0.00 8 1023.0
20260901233016 84 218 7.0 16.0 0.00 0.00 0.00 8 1023.2
20260901231516 85 194 2.0 12.0 0.00 0.00 0.00 7 1023.2
20260901230032 85 233 5.0 12.0 0.00 0.00 0.00 7 1023.4
20260901224517 84 264 7.0 13.0 0.00 0.00 0.00 8 1023.3
20260901223011 85 218 5.0 15.0 0.00 0.00 0.00 8 1023.4
20260901221513 85 213 7.0 13.0 0.00 0.00 0.00 7 1023.4
20260901220010 84 269 6.0 14.0 0.00 0.00 0.00 9 1023.4
20260901214508 85 248 7.0 16.0 0.00 0.00 0.00 9 1023.4
20260901213016 85 296 4.0 15.0 0.00 0.00 0.00 11 1023.3
20260901211503 84 190 8.0 15.0 0.00 0.00 0.00 12 1023.5
20260901210100 84 205 10.0 17.0 0.00 0.00 0.00 12 1023.4
20260901204558 83 210 10.0 21.0 0.00 0.00 0.00 9 1023.5
20260901203102 83 167 12.0 21.0 0.00 0.00 0.00 11 1023.7
20260901201554 84 179 9.0 19.0 0.00 0.00 0.00 11 1023.7
20260901200054 84 200 9.0 20.0 0.00 0.00 0.00 11 1023.6
20260901194546 84 195 8.0 14.0 0.00 0.00 0.00 10 1023.7
20260901193058 84 205 10.0 17.0 0.00 0.00 0.00 10 1023.8
20260901191542 84 188 11.0 19.0 0.00 0.00 0.00 9 1023.8
20260901190037 83 139 1.0 7.0 0.00 0.00 0.00 12 1024.0
20260901184535 81 200 3.0 8.0 0.00 0.00 0.00 15 1024.2
20260901183030 80 72 2.0 7.0 0.00 0.00 0.00 16 1024.1
20260901181526 79 236 3.0 6.0 0.00 0.00 0.00 21 1024.3
20260901180023 77 217 3.0 6.0 0.00 0.00 0.00 22 1024.5
20260901174520 76 218 3.0 7.0 0.00 0.00 0.00 25 1024.5
20260901173016 75 236 3.0 6.0 0.00 0.00 0.00 31 1024.6
20260901171520 74 209 2.0 6.0 0.00 0.00 0.00 31 1024.6
20260901170010 72 191 1.0 5.0 0.00 0.00 0.00 30 1024.7
20260901164510 71 229 2.0 5.0 0.00 0.00 0.00 32 1024.7
20260901163004 70 161 1.0 5.0 0.00 0.00 0.00 33 1024.7
20260901161504 69 145 1.0 5.0 0.00 0.00 0.00 33 1024.7
20260901160002 69 208 2.0 5.0 0.00 0.00 0.00 34 1024.9
20260901154505 69 11 0.0 1.0 0.00 0.00 0.00 30 1025.0
20260901153108 67 335 0.0 5.0 0.00 0.00 0.00 33 1025.0
20260901151558 63 356 0.0 0.0 0.00 0.00 0.00 38 1024.9
20260901150057 60 319 0.0 1.0 0.00 0.00 0.00 45 1025.0